Time;durP1;ratioP1;P1;durP2;ratioP2;P2;SDS_P1;SDS_P2;PMS_P1;PMS_P2;Temp;Humidity;BMP_temperature;BMP_pressure;BME280_temperature;BME280_humidity;BME280_pressure;Samples;Min_cycle;Max_cycle;Signal;HPM_P1;HPM_P2
2022/11/16 00:01:40;;;;;;;4.00;2.93;;;14.20;93.50;;;14.61;60.42;97413.47;4963336;28;114422;-72
2022/11/16 00:04:10;;;;;;;3.07;2.53;;;14.20;93.60;;;14.60;60.29;97411.88;4965134;28;124061;-72
2022/11/16 00:06:37;;;;;;;4.67;3.00;;;14.20;93.60;;;14.58;60.39;97410.28;4966238;28;124622;-72
2022/11/16 00:09:21;;;;;;;5.37;2.93;;;14.20;93.60;;;14.58;60.33;97404.72;4963262;28;114214;-72
2022/11/16 00:11:59;;;;;;;4.70;2.80;;;14.20;93.60;;;14.55;60.36;97416.56;4965912;28;113810;-72
2022/11/16 00:14:31;;;;;;;3.60;2.20;;;14.10;93.60;;;14.53;60.42;97409.78;4966479;28;123852;-72
2022/11/16 00:16:58;;;;;;;4.63;2.70;;;14.10;93.60;;;14.50;60.48;97407.72;4968268;28;123849;-73
2022/11/16 00:19:26;;;;;;;4.73;2.97;;;14.00;93.60;;;14.49;60.45;97411.69;4968365;28;113881;-72
2022/11/16 00:21:53;;;;;;;4.47;2.97;;;14.00;93.60;;;14.46;60.46;97418.78;4967615;28;113636;-72
2022/11/16 00:24:22;;;;;;;4.33;2.70;;;14.00;93.60;;;14.44;60.56;97412.00;4968186;28;124099;-72
2022/11/16 00:26:49;;;;;;;3.50;3.03;;;14.00;93.60;;;14.40;60.43;97411.94;4968989;28;126673;-72
2022/11/16 00:29:22;;;;;;;3.30;2.53;;;14.00;93.60;;;14.38;60.62;97405.16;4964849;28;114219;-72
2022/11/16 00:31:50;;;;;;;3.00;2.50;;;13.90;93.60;;;14.36;60.74;97405.53;4967909;28;114725;-71
2022/11/16 00:34:17;;;;;;;5.20;2.77;;;14.00;93.70;;;14.34;60.84;97402.31;4964044;28;124088;-72
2022/11/16 00:36:44;;;;;;;3.80;2.30;;;13.90;93.60;;;14.35;60.77;97406.69;4982792;28;123509;-72
2022/11/16 00:39:13;;;;;;;5.03;2.33;;;13.90;93.60;;;14.34;60.72;97393.97;4970688;28;113771;-72
2022/11/16 00:41:41;;;;;;;3.30;2.53;;;13.90;93.70;;;14.33;60.58;97393.16;4969050;28;114200;-72
2022/11/16 00:44:08;;;;;;;3.50;2.70;;;13.90;93.60;;;14.33;60.73;97397.94;4967455;28;122899;-72
2022/11/16 00:46:34;;;;;;;4.20;2.93;;;13.90;93.60;;;14.32;60.52;97399.91;4967027;28;123464;-72
2022/11/16 00:49:01;;;;;;;2.97;2.40;;;13.90;93.60;;;14.31;60.62;97391.94;4964673;28;115793;-72
2022/11/16 00:51:27;;;;;;;3.33;2.67;;;13.90;93.60;;;14.28;60.58;97396.25;4969841;28;114983;-72
2022/11/16 00:53:54;;;;;;;4.17;3.20;;;13.80;93.60;;;14.28;60.53;97401.03;4999121;28;124460;-72
2022/11/16 00:56:20;;;;;;;3.03;2.40;;;13.80;93.70;;;14.26;60.56;97386.69;4967317;28;123769;-74
2022/11/16 00:58:47;;;;;;;4.00;2.70;;;13.80;93.70;;;14.24;60.67;97392.63;4967404;28;113335;-72
2022/11/16 01:01:14;;;;;;;3.50;2.60;;;13.80;93.70;;;14.23;60.68;97388.22;4967177;28;113895;-72
2022/11/16 01:03:40;;;;;;;4.10;2.30;;;13.80;93.70;;;14.23;60.61;97388.22;4967074;28;124045;-72
2022/11/16 01:06:12;;;;;;;3.20;2.60;;;13.80;93.70;;;14.24;60.65;97378.75;4966494;28;123791;-72
2022/11/16 01:08:40;;;;;;;4.77;2.77;;;13.80;93.70;;;14.22;60.59;97385.84;4981516;28;113389;-73
2022/11/16 01:13:54;;;;;;;3.50;2.20;;;13.80;93.70;;;14.17;60.75;97373.06;4968114;28;125069;-71
2022/11/16 01:16:22;;;;;;;4.33;3.00;;;13.70;93.60;;;14.18;60.63;97379.41;4967273;28;124211;-71
2022/11/16 01:18:51;;;;;;;3.50;2.73;;;13.80;93.70;;;14.14;60.80;97376.59;4966115;28;115482;-72
2022/11/16 01:21:19;;;;;;;3.40;2.27;;;13.70;93.70;;;14.12;60.83;97376.94;4970441;28;114898;-71
2022/11/16 01:23:45;;;;;;;3.10;2.30;;;13.70;93.80;;;14.10;60.91;97373.75;4968698;28;123253;-71
2022/11/16 01:26:12;;;;;;;3.17;2.87;;;13.70;93.80;;;14.10;61.26;97379.31;4972353;28;123653;-71
2022/11/16 01:28:38;;;;;;;3.47;2.60;;;13.60;93.80;;;14.08;61.02;97367.75;4966438;28;114302;-71
2022/11/16 01:31:05;;;;;;;4.63;2.30;;;13.60;93.80;;;14.08;61.21;97370.53;4967196;28;114416;-71
2022/11/16 01:33:31;;;;;;;3.27;2.37;;;13.60;93.90;;;14.05;61.26;97360.19;4964866;28;123813;-71
2022/11/16 01:35:59;;;;;;;5.27;2.90;;;13.70;94.00;;;14.05;61.22;97367.69;4965901;28;123776;-71
2022/11/16 01:38:25;;;;;;;6.17;2.80;;;13.60;93.90;;;14.02;61.12;97371.22;4967291;28;115732;-72
2022/11/16 01:40:52;;;;;;;4.00;3.00;;;13.60;93.90;;;13.98;61.20;97362.81;4966898;28;115084;-72
2022/11/16 01:43:23;;;;;;;3.97;2.93;;;13.60;94.00;;;13.97;61.36;97375.13;4957206;28;123735;-72
2022/11/16 01:45:50;;;;;;;4.73;2.87;;;13.50;94.00;;;13.96;61.26;97362.38;4965180;28;123870;-72
2022/11/16 01:48:26;;;;;;;2.50;2.17;;;13.50;94.00;;;13.94;61.16;97359.16;4966082;28;114700;-71
2022/11/16 01:50:56;;;;;;;3.70;2.80;;;13.50;94.10;;;13.92;61.50;97354.00;4970642;28;114084;-72
2022/11/16 01:53:23;;;;;;;2.20;2.00;;;13.50;94.10;;;13.89;61.47;97351.16;4968456;28;124231;-74
2022/11/16 01:55:51;;;;;;;3.03;2.57;;;13.40;94.10;;;13.86;61.53;97351.88;4968977;28;123864;-71
2022/11/16 01:58:22;;;;;;;3.17;2.27;;;13.40;94.20;;;13.83;61.71;97341.53;4969576;28;114252;-71
2022/11/16 02:00:48;;;;;;;4.20;2.80;;;13.40;94.20;;;13.82;61.81;97345.47;4969896;28;114253;-72
2022/11/16 02:03:20;;;;;;;3.50;2.03;;;13.40;94.20;;;13.80;61.66;97343.06;4970004;28;123817;-73
2022/11/16 02:06:19;;;;;;;7.30;2.50;;;13.30;94.20;;;13.76;61.86;97346.97;4970349;28;124294;-70
2022/11/16 02:12:31;;;;;;;3.47;2.57;;;13.20;94.30;;;13.67;62.07;97349.97;4966446;28;114347;-73
2022/11/16 02:15:15;;;;;;;5.10;2.33;;;13.20;94.50;;;13.61;62.26;97352.25;4930538;28;123859;-72
2022/11/16 02:18:25;;;;;;;3.80;2.80;;;13.20;94.50;;;13.59;62.28;97343.47;4927712;28;123919;-72
2022/11/16 02:21:08;;;;;;;3.00;2.27;;;13.20;94.60;;;13.58;62.78;97341.88;4930753;28;114018;-71
2022/11/16 02:24:15;;;;;;;5.63;2.60;;;13.10;94.60;;;13.56;62.72;97346.19;4928499;28;113999;-72
2022/11/16 02:27:35;;;;;;;6.30;2.40;;;13.20;94.70;;;13.53;63.00;97344.94;4930392;28;124076;-71
2022/11/16 02:30:04;;;;;;;5.53;2.40;;;13.10;94.70;;;13.51;63.18;97343.72;4911649;28;125302;-71
2022/11/16 02:32:37;;;;;;;3.77;2.20;;;13.10;94.90;;;13.50;63.48;97350.44;4928336;28;115168;-71
2022/11/16 02:35:10;;;;;;;4.20;2.67;;;13.10;94.90;;;13.49;63.53;97346.88;4932219;28;114427;-71
2022/11/16 02:37:50;;;;;;;3.13;2.30;;;13.10;95.00;;;13.48;63.67;97342.47;4927853;28;124117;-71
2022/11/16 02:40:20;;;;;;;2.27;1.83;;;13.10;95.10;;;13.47;63.57;97338.09;4930059;28;123743;-71
2022/11/16 02:42:59;;;;;;;3.93;2.40;;;13.10;95.10;;;13.47;63.73;97338.09;4920598;28;114033;-71
2022/11/16 02:45:31;;;;;;;3.23;2.40;;;13.10;95.20;;;13.46;64.06;97345.63;4938947;28;113837;-71
2022/11/16 02:48:10;;;;;;;3.37;2.20;;;13.10;95.20;;;13.45;64.00;97326.56;4970095;28;124676;-71
2022/11/16 02:50:38;;;;;;;2.60;2.20;;;13.00;95.30;;;13.46;63.98;97344.84;4999451;28;124342;-70
2022/11/16 02:53:04;;;;;;;3.60;2.20;;;13.10;95.40;;;13.47;64.33;97335.34;4968534;28;113430;-71
2022/11/16 02:55:33;;;;;;;2.60;2.03;;;13.10;95.40;;;13.46;64.23;97333.75;4969315;28;113733;-71
2022/11/16 02:58:11;;;;;;;3.33;2.20;;;13.00;95.50;;;13.47;64.37;97340.88;4968147;28;124554;-71
2022/11/16 03:00:52;;;;;;;3.77;2.47;;;13.00;95.50;;;13.46;64.44;97334.53;4967456;28;123465;-71
2022/11/16 03:03:40;;;;;;;4.00;2.40;;;13.00;95.60;;;13.46;64.35;97340.09;4967997;28;114305;-71
2022/11/16 03:06:13;;;;;;;4.37;2.50;;;13.00;95.70;;;13.47;64.81;97335.34;4969724;28;113710;-71
2022/11/16 03:08:50;;;;;;;4.23;2.33;;;13.00;95.70;;;13.46;64.65;97331.75;4968947;28;124126;-71
2022/11/16 03:14:13;;;;;;;3.30;2.40;;;13.00;95.90;;;13.47;64.82;97338.09;4973067;28;115364;-72
2022/11/16 03:16:48;;;;;;;3.10;2.20;;;13.00;95.90;;;13.46;64.89;97337.31;4968281;28;113623;-72
2022/11/16 03:19:24;;;;;;;4.53;2.47;;;13.00;96.00;;;13.47;65.11;97330.56;4960838;28;124776;-71
2022/11/16 03:22:04;;;;;;;3.00;1.97;;;13.00;96.00;;;13.48;65.11;97332.16;4967801;28;123763;-71
2022/11/16 03:24:31;;;;;;;2.57;2.00;;;13.00;96.10;;;13.50;65.06;97322.69;4967978;28;115056;-71
2022/11/16 03:27:26;;;;;;;2.63;1.90;;;13.10;96.10;;;13.51;65.07;97314.00;4989102;28;115376;-71
2022/11/16 03:30:06;;;;;;;2.87;1.93;;;13.10;96.20;;;13.54;65.13;97323.56;4973348;28;124350;-71
2022/11/16 03:33:08;;;;;;;4.40;2.10;;;13.10;96.20;;;13.54;65.05;97316.06;4989291;28;123294;-72
2022/11/16 03:35:54;;;;;;;7.30;2.23;;;13.10;96.20;;;13.56;65.25;97318.44;4989812;28;114229;-71
2022/11/16 03:38:23;;;;;;;2.53;2.07;;;13.10;96.30;;;13.56;65.41;97316.47;4989383;28;113665;-70
2022/11/16 03:40:50;;;;;;;1.93;1.73;;;13.10;96.30;;;13.58;65.29;97311.34;4990445;28;124899;-71
2022/11/16 03:43:19;;;;;;;2.70;1.93;;;13.20;96.30;;;13.62;65.34;97315.00;4990554;28;124124;-71
2022/11/16 03:45:46;;;;;;;3.97;2.73;;;13.20;96.40;;;13.63;65.33;97302.72;4987134;28;114189;-72
2022/11/16 03:48:12;;;;;;;4.77;3.10;;;13.20;96.40;;;13.64;65.47;97301.53;4974243;28;113361;-72
2022/11/16 03:50:41;;;;;;;3.13;2.60;;;13.20;96.50;;;13.62;65.65;97301.13;4984801;28;124105;-70
2022/11/16 03:53:07;;;;;;;4.43;2.63;;;13.20;96.60;;;13.58;65.59;97291.13;4988556;28;123867;-72
2022/11/16 03:55:34;;;;;;;3.10;2.80;;;13.20;96.60;;;13.55;65.82;97303.78;4987349;28;114310;-72
2022/11/16 03:58:01;;;;;;;3.13;2.83;;;13.10;96.70;;;13.54;65.98;97304.13;4972136;28;114057;-72
2022/11/16 04:00:27;;;;;;;2.60;2.40;;;13.10;96.70;;;13.55;66.14;97312.09;4949086;28;123886;-73
2022/11/16 04:02:54;;;;;;;4.30;2.57;;;13.10;96.80;;;13.56;65.94;97324.78;4947985;28;124285;-72
2022/11/16 04:25:24;;;;;;;3.50;2.00;;;13.10;97.00;;;13.55;66.15;97367.59;4949764;28;124363;-71
2022/11/16 04:38:58;;;;;;;2.50;1.60;;;13.10;97.10;;;13.62;66.58;97362.19;4939672;28;114863;-71
2022/11/16 04:44:09;;;;;;;1.70;1.53;;;13.20;97.20;;;13.66;66.48;97365.81;4971634;28;123895;-72
2022/11/16 04:49:22;;;;;;;3.20;1.90;;;13.20;97.30;;;13.70;66.77;97372.25;4971831;28;114800;-71
2022/11/16 04:51:51;;;;;;;2.80;2.13;;;13.20;97.30;;;13.69;66.57;97370.63;4970162;28;114981;-69
2022/11/16 04:54:20;;;;;;;3.20;1.80;;;13.20;97.30;;;13.70;66.51;97371.41;4967461;28;124334;-70
2022/11/16 04:56:47;;;;;;;4.30;1.93;;;13.20;97.40;;;13.69;66.46;97365.06;4960803;28;123844;-71
2022/11/16 04:59:14;;;;;;;2.10;1.70;;;13.40;97.40;;;13.68;66.63;97357.94;4967974;28;114244;-71
2022/11/16 05:04:25;;;;;;;1.83;1.70;;;13.20;97.30;;;13.71;66.56;97345.28;4970312;28;124689;-71
2022/11/16 05:06:52;;;;;;;2.33;1.90;;;13.20;97.30;;;13.75;66.62;97356.44;4967509;28;123881;-71
2022/11/16 05:09:19;;;;;;;2.67;1.80;;;13.30;97.40;;;13.77;66.68;97351.34;4966941;28;115959;-72
2022/11/16 05:11:46;;;;;;;2.70;1.83;;;13.30;97.40;;;13.79;66.47;97351.78;4968462;28;114924;-72
2022/11/16 05:14:13;;;;;;;2.43;1.83;;;13.40;97.40;;;13.81;66.56;97346.63;4967467;28;124911;-71
2022/11/16 05:16:39;;;;;;;2.77;1.80;;;13.30;97.40;;;13.83;66.60;97344.31;4966861;28;123868;-72
2022/11/16 05:21:51;;;;;;;3.07;2.13;;;13.30;97.40;;;13.84;66.72;97346.72;4970378;28;114858;-71
2022/11/16 05:24:32;;;;;;;2.10;1.90;;;13.40;97.40;;;13.84;66.53;97352.28;4967593;28;124144;-71
2022/11/16 05:27:01;;;;;;;2.77;2.13;;;13.40;97.50;;;13.85;66.53;97361.41;4966996;28;124076;-71
2022/11/16 05:29:28;;;;;;;2.60;2.03;;;13.40;97.40;;;13.86;66.52;97365.75;4969150;28;114409;-70
2022/11/16 05:31:54;;;;;;;3.30;2.20;;;13.30;97.40;;;13.86;66.52;97363.81;4967083;28;113691;-71
2022/11/16 05:34:21;;;;;;;2.50;1.50;;;13.40;97.40;;;13.87;66.64;97362.63;4965894;28;125123;-72
2022/11/16 05:36:47;;;;;;;2.77;1.97;;;13.60;97.50;;;13.89;66.53;97367.84;4966389;28;126169;-72
2022/11/16 05:39:14;;;;;;;2.53;1.97;;;13.40;97.40;;;13.89;66.35;97359.50;4967106;28;113551;-71
2022/11/16 05:41:40;;;;;;;3.23;2.20;;;13.40;97.40;;;13.88;66.47;97366.22;4967647;28;114040;-71
2022/11/16 05:44:07;;;;;;;3.63;2.10;;;13.40;97.40;;;13.88;66.35;97372.56;4966213;28;124079;-71
2022/11/16 05:46:33;;;;;;;2.23;2.00;;;13.40;97.50;;;13.88;66.39;97369.78;4967502;28;124059;-71
2022/11/16 05:49:00;;;;;;;2.73;2.03;;;13.40;97.50;;;13.88;66.49;97366.22;4966347;28;114259;-73
2022/11/16 05:51:26;;;;;;;1.90;1.53;;;13.40;97.50;;;13.85;66.34;97370.53;4969133;28;114659;-71
2022/11/16 05:53:53;;;;;;;2.00;1.80;;;13.30;97.50;;;13.84;66.71;97370.91;4966120;28;124428;-71
2022/11/16 05:56:19;;;;;;;2.63;1.83;;;13.40;97.50;;;13.84;66.73;97359.81;4966503;28;123754;-71
2022/11/16 05:58:46;;;;;;;3.53;1.80;;;13.40;97.60;;;13.84;66.68;97365.34;4965870;28;115276;-72
2022/11/16 06:01:12;;;;;;;2.70;1.90;;;13.40;97.60;;;13.85;66.71;97361.41;4966778;28;115152;-71
2022/11/16 06:03:39;;;;;;;5.57;2.13;;;13.30;97.50;;;13.85;66.58;97361.41;4966704;28;124538;-72
2022/11/16 06:06:06;;;;;;;2.90;1.90;;;13.40;97.60;;;13.85;66.69;97366.94;4966041;28;123938;-71
2022/11/16 06:08:32;;;;;;;2.90;1.90;;;13.30;97.50;;;13.85;66.72;97361.41;5001744;28;113545;-71
2022/11/16 06:11:04;;;;;;;1.90;1.70;;;13.40;97.60;;;13.85;66.65;97362.19;4968861;28;113978;-71
2022/11/16 06:13:32;;;;;;;2.90;2.10;;;13.40;97.60;;;13.86;66.69;97368.53;4969821;28;124014;-72
2022/11/16 06:15:59;;;;;;;2.10;1.80;;;13.40;97.60;;;13.85;66.60;97367.75;4967016;28;124207;-73
2022/11/16 06:18:26;;;;;;;3.00;1.93;;;13.40;97.60;;;13.86;66.60;97374.91;4966579;28;114496;-71
2022/11/16 06:20:53;;;;;;;2.40;1.70;;;13.40;97.60;;;13.88;66.56;97371.75;4955685;28;114116;-72
2022/11/16 06:23:20;;;;;;;2.43;1.90;;;13.40;97.60;;;13.88;66.69;97377.31;4955442;28;124057;-73
2022/11/16 06:25:52;;;;;;;2.30;1.60;;;13.40;97.60;;;13.90;66.48;97397.19;4959028;28;124224;-71
2022/11/16 06:28:18;;;;;;;2.53;1.80;;;13.40;97.60;;;13.88;66.79;97396.75;4955706;28;114178;-69
2022/11/16 06:30:45;;;;;;;2.73;2.20;;;13.40;97.60;;;13.89;66.48;97395.59;4950701;28;114130;-71
2022/11/16 06:33:11;;;;;;;3.30;2.13;;;13.40;97.60;;;13.91;66.49;97398.78;4997177;28;123794;-74
2022/11/16 06:35:38;;;;;;;2.20;1.70;;;13.40;97.60;;;13.90;66.52;97394.41;4960179;28;122675;-74
2022/11/16 06:38:04;;;;;;;1.73;1.30;;;13.40;97.60;;;13.89;66.64;97388.06;4951105;28;114068;-72
2022/11/16 06:40:32;;;;;;;3.60;2.00;;;13.40;97.60;;;13.90;66.58;97402.75;4966676;28;113993;-74
2022/11/16 06:42:59;;;;;;;2.47;2.27;;;13.40;97.60;;;13.88;66.42;97411.44;4977139;28;124261;-74
2022/11/16 06:45:26;;;;;;;2.50;1.90;;;13.40;97.60;;;13.86;66.58;97412.97;4968272;28;123657;-73
2022/11/16 06:47:52;;;;;;;3.40;2.43;;;13.60;97.70;;;13.86;66.58;97412.97;4967124;28;115141;-72
2022/11/16 06:50:19;;;;;;;5.10;2.30;;;13.30;97.60;;;13.85;66.51;97416.91;4967065;28;115811;-72
2022/11/16 06:52:47;;;;;;;2.73;2.07;;;13.40;97.60;;;13.84;66.72;97415.31;4966884;28;124194;-72
2022/11/16 06:55:15;;;;;;;5.20;2.33;;;13.40;97.60;;;13.84;66.87;97415.31;4961684;28;123974;-71
2022/11/16 06:57:42;;;;;;;2.97;2.17;;;13.40;97.90;;;13.83;66.86;97425.59;4955448;28;114251;-71
2022/11/16 07:00:10;;;;;;;4.80;2.50;;;13.40;97.60;;;13.83;66.81;97419.25;4989419;28;114383;-74
2022/11/16 07:02:37;;;;;;;2.60;1.90;;;13.40;97.70;;;13.80;66.83;97425.53;4967417;28;123148;-75
2022/11/16 07:05:05;;;;;;;2.63;1.97;;;13.30;97.60;;;13.79;66.77;97429.50;4960229;28;123894;-74
2022/11/16 07:07:32;;;;;;;1.90;1.60;;;13.30;97.60;;;13.78;66.95;97427.88;4967524;28;113760;-75
2022/11/16 07:09:59;;;;;;;2.10;1.90;;;13.30;97.70;;;13.76;67.30;97435.78;4964738;28;113863;-74
2022/11/16 07:12:26;;;;;;;2.20;1.70;;;13.30;97.70;;;13.75;66.76;97434.16;4992239;28;123249;-80
2022/11/16 07:14:52;;;;;;;3.53;1.70;;;13.40;97.80;;;13.76;67.12;97442.16;4995580;28;123857;-77
2022/11/16 07:17:19;;;;;;;2.43;1.90;;;13.30;97.70;;;13.77;67.04;97454.84;4964067;28;113548;-80
2022/11/16 07:19:45;;;;;;;2.07;1.77;;;13.40;97.80;;;13.79;67.14;97451.72;4970140;28;113829;-79
2022/11/16 07:22:11;;;;;;;2.00;1.70;;;13.30;97.80;;;13.82;67.15;97457.31;4957218;28;123086;-79
2022/11/16 07:24:38;;;;;;;2.23;2.03;;;13.40;97.80;;;13.86;67.09;97465.72;4967918;28;124471;-79
2022/11/16 07:27:07;;;;;;;1.90;1.70;;;13.40;97.80;;;13.88;67.05;97464.19;4969359;28;113584;-80
2022/11/16 07:29:33;;;;;;;2.77;1.67;;;13.90;98.00;;;13.89;66.93;97463.03;4967307;28;113806;-80
2022/11/16 07:32:27;;;;;;;2.50;1.80;;;13.40;97.80;;;13.91;66.82;97468.19;4951861;28;123518;-84
2022/11/16 07:35:02;;;;;;;1.87;1.70;;;13.40;97.80;;;13.91;66.95;97454.31;4964132;28;124334;-79
2022/11/16 07:37:29;;;;;;;2.27;1.60;;;13.40;97.80;;;13.93;66.74;97463.09;4961640;28;115335;-82
2022/11/16 07:40:01;;;;;;;1.80;1.53;;;13.40;97.80;;;13.96;66.67;97467.91;4967260;28;113739;-81
2022/11/16 07:42:27;;;;;;;2.80;1.57;;;13.50;97.80;;;14.00;66.59;97476.31;4968779;28;123488;-79
2022/11/16 07:44:54;;;;;;;2.17;1.47;;;13.50;97.70;;;14.02;66.46;97471.97;4969005;28;123021;-80
2022/11/16 07:47:20;;;;;;;1.80;1.47;;;14.10;97.90;;;14.04;66.62;97480.75;4970871;28;113854;-89
2022/11/16 07:49:47;;;;;;;1.53;1.20;;;13.50;97.50;;;14.07;65.96;97477.22;4968493;28;113158;-80
2022/11/16 07:52:14;;;;;;;1.70;1.30;;;13.50;97.40;;;14.08;65.70;97486.38;5001587;28;123797;-78
2022/11/16 07:54:43;;;;;;;1.67;1.47;;;13.60;97.40;;;14.08;65.44;97481.63;4967200;28;123045;-79
2022/11/16 07:57:10;;;;;;;2.23;1.13;;;13.50;97.10;;;14.07;65.35;97479.22;4979738;28;114165;-78
2022/11/16 08:03:18;;;;;;;1.63;1.33;;;12.40;96.40;;;13.98;64.94;97476.66;4963337;28;125650;-81
2022/11/16 08:05:45;;;;;;;1.97;1.43;;;15.30;97.60;;;13.97;64.56;97486.19;4964679;28;124098;-84
2022/11/16 08:08:12;;;;;;;1.70;1.20;;;13.50;96.70;;;14.00;64.71;97491.00;4968193;28;114224;-80
2022/11/16 08:10:38;;;;;;;1.33;1.20;;;13.50;96.60;;;14.04;64.54;97488.28;4968218;28;113881;-81
2022/11/16 08:13:05;;;;;;;2.17;1.43;;;13.50;96.60;;;14.07;64.41;97499.44;4968888;28;124400;-84
2022/11/16 08:15:31;;;;;;;2.33;1.43;;;13.80;96.70;;;14.10;64.66;97490.41;4982658;28;122911;-81
2022/11/16 08:18:18;;;;;;;2.00;1.43;;;13.60;96.60;;;14.13;64.42;97484.13;4968083;28;114449;-80
2022/11/16 08:20:45;;;;;;;2.13;1.40;;;13.60;96.60;;;14.15;64.37;97483.72;4908930;28;114029;-83
2022/11/16 08:23:12;;;;;;;5.10;1.27;;;13.80;96.60;;;14.19;64.19;97481.03;4910015;28;123974;-79
2022/11/16 08:25:38;;;;;;;2.27;1.67;;;13.70;96.50;;;14.22;63.96;97471.97;4900142;28;121692;-78
2022/11/16 08:28:05;;;;;;;2.30;1.43;;;13.70;96.50;;;14.26;63.88;97486.69;4905272;28;114574;-78
2022/11/16 08:30:31;;;;;;;2.13;1.20;;;13.70;96.40;;;14.30;63.66;97482.03;4889236;28;114902;-80
2022/11/16 08:32:58;;;;;;;3.23;1.17;;;13.80;96.30;;;14.32;63.43;97479.69;4900052;28;124435;-79
2022/11/16 08:35:24;;;;;;;2.43;1.40;;;13.80;96.20;;;14.34;63.42;97478.13;4904866;28;123812;-83
2022/11/16 08:37:50;;;;;;;3.63;1.10;;;13.80;96.20;;;14.41;63.38;97476.66;4905578;28;114353;-81
2022/11/16 08:40:17;;;;;;;2.27;1.10;;;14.90;96.50;;;14.45;63.01;97481.09;4888885;28;114042;-80
2022/11/16 08:42:44;;;;;;;1.97;1.20;;;13.90;96.00;;;14.49;62.73;97481.97;4891892;28;124226;-79
2022/11/16 08:45:10;;;;;;;1.73;1.20;;;13.90;95.90;;;14.51;62.83;97481.59;4907400;28;123987;-81
2022/11/16 08:47:37;;;;;;;2.20;1.37;;;13.90;95.80;;;14.53;62.57;97474.53;4898707;28;115030;-80
2022/11/16 08:50:04;;;;;;;1.87;1.40;;;14.00;95.70;;;14.54;62.36;97490.03;4900261;28;114565;-81
2022/11/16 08:52:31;;;;;;;2.43;1.57;;;14.00;95.60;;;14.55;62.29;97490.81;4907703;28;123947;-79
2022/11/16 08:54:57;;;;;;;1.50;1.20;;;14.00;95.50;;;14.53;62.04;97502.34;4889687;28;123766;-85
2022/11/16 08:57:24;;;;;;;5.60;1.30;;;14.00;95.40;;;14.52;62.02;97497.94;4918346;28;114293;-81
2022/11/16 08:59:50;;;;;;;2.00;1.20;;;14.00;95.30;;;14.49;62.00;97501.41;4955873;28;114097;-79
2022/11/16 09:02:24;;;;;;;2.40;1.20;;;14.00;95.30;;;14.50;62.05;97502.22;4962377;28;124604;-77
2022/11/16 09:04:53;;;;;;;2.20;1.63;;;14.00;95.30;;;14.53;62.13;97498.72;4961632;28;124295;-79
2022/11/16 09:07:20;;;;;;;2.10;1.17;;;15.10;95.80;;;14.55;62.00;97502.75;4993329;28;114194;-80
2022/11/16 09:09:46;;;;;;;1.60;1.33;;;14.10;95.40;;;14.58;62.03;97506.75;4969104;28;114113;-79
2022/11/16 09:12:13;;;;;;;2.40;1.40;;;14.10;95.30;;;14.60;61.90;97506.41;4966855;28;123871;-79
2022/11/16 09:14:39;;;;;;;2.60;1.27;;;14.10;95.30;;;14.62;61.83;97501.28;4965141;28;123692;-78
2022/11/16 09:17:12;;;;;;;1.47;1.07;;;14.10;95.30;;;14.66;61.79;97493.78;4967458;28;114510;-80
2022/11/16 09:19:38;;;;;;;1.90;1.10;;;14.10;95.20;;;14.69;61.63;97499.41;4966458;28;114875;-80
2022/11/16 09:22:05;;;;;;;1.60;1.20;;;14.20;95.20;;;14.71;61.91;97491.50;4965109;28;124155;-79
2022/11/16 09:24:31;;;;;;;2.30;1.13;;;14.20;95.30;;;14.74;61.87;97495.50;4967125;28;123804;-78
2022/11/16 09:27:00;;;;;;;2.27;1.40;;;14.30;95.30;;;14.73;61.64;97493.91;4967607;28;114470;-77
2022/11/16 09:29:26;;;;;;;2.17;1.17;;;14.20;95.10;;;14.71;61.41;97501.81;4968539;28;113738;-78
2022/11/16 09:31:54;;;;;;;3.63;1.00;;;14.20;95.00;;;14.68;61.41;97497.00;4966763;28;124241;-78
2022/11/16 09:34:20;;;;;;;3.90;1.20;;;14.20;95.00;;;14.70;61.40;97503.00;4996233;28;123776;-77
2022/11/16 09:36:47;;;;;;;2.50;1.30;;;14.20;95.00;;;14.71;61.31;97496.25;4966600;28;114262;-78
2022/11/16 09:39:13;;;;;;;2.80;1.60;;;14.20;94.90;;;14.75;61.21;97502.69;4966815;28;114046;-75
2022/11/16 09:42:01;;;;;;;4.10;1.30;;;14.20;94.90;;;14.78;60.81;97502.75;4983253;28;125135;-77
2022/11/16 09:44:55;;;;;;;2.40;1.20;;;14.30;94.80;;;14.79;60.81;97503.53;4967967;28;123876;-76
2022/11/16 09:47:36;;;;;;;2.87;1.57;;;14.30;94.70;;;14.79;60.62;97511.88;4982606;28;113721;-79
2022/11/16 09:50:05;;;;;;;2.00;1.40;;;14.30;94.60;;;14.78;60.43;97511.09;4967966;28;114149;-78
2022/11/16 09:52:41;;;;;;;3.90;1.50;;;14.30;94.50;;;14.81;60.12;97517.88;4959060;28;124456;-76
2022/11/16 09:55:37;;;;;;;1.73;1.20;;;14.30;94.40;;;14.82;60.23;97519.47;4949897;28;123525;-77
2022/11/16 09:58:13;;;;;;;4.00;1.60;;;14.30;94.30;;;14.87;60.17;97515.59;4965955;28;114389;-76
2022/11/16 10:00:48;;;;;;;1.17;1.00;;;14.30;94.30;;;14.91;59.90;97508.91;4999035;28;114463;-76
2022/11/16 10:03:15;;;;;;;2.70;1.40;;;14.40;94.30;;;14.97;59.99;97510.19;4991465;28;124552;-79
2022/11/16 10:05:54;;;;;;;3.00;1.37;;;14.40;94.20;;;15.00;59.37;97503.88;4963925;28;125540;-80
2022/11/16 10:08:42;;;;;;;3.20;1.47;;;14.70;94.20;;;15.05;59.33;97510.31;4959343;28;114842;-79
2022/11/16 10:11:37;;;;;;;2.20;1.43;;;14.50;94.00;;;15.06;59.23;97506.34;4979311;28;115278;-78
2022/11/16 10:14:50;;;;;;;1.80;1.03;;;14.50;93.90;;;15.10;59.33;97504.41;4978469;28;124510;-79
2022/11/16 10:17:25;;;;;;;3.93;1.37;;;14.60;93.90;;;15.12;59.20;97502.06;4970741;28;124649;-79
2022/11/16 10:20:19;;;;;;;1.97;1.37;;;14.60;93.90;;;15.14;58.91;97503.28;4969482;28;114516;-78
2022/11/16 10:23:13;;;;;;;2.07;1.33;;;14.60;93.80;;;15.17;58.94;97501.75;4969714;28;114907;-79
2022/11/16 10:25:46;;;;;;;3.10;1.47;;;14.70;93.70;;;15.22;58.67;97493.06;4964997;28;123848;-77
2022/11/16 10:28:46;;;;;;;1.57;1.20;;;14.70;93.70;;;15.23;59.03;97495.50;4968287;28;123868;-78
2022/11/16 10:31:58;;;;;;;1.27;1.17;;;14.70;93.60;;;15.29;58.83;97482.06;4969915;28;115891;-78
2022/11/16 10:34:51;;;;;;;1.90;1.23;;;14.80;93.60;;;15.36;58.63;97484.91;4958287;28;114384;-78
2022/11/16 10:37:19;;;;;;;2.47;1.10;;;14.80;93.60;;;15.51;58.53;97487.91;4962557;28;124592;-78
2022/11/16 10:39:52;;;;;;;2.53;1.40;;;14.90;93.70;;;15.62;58.51;97480.50;4984129;28;123210;-82
2022/11/16 10:42:32;;;;;;;2.60;1.60;;;15.00;93.70;;;15.67;58.20;97475.41;4971468;28;114610;-77
2022/11/16 10:45:23;;;;;;;2.50;1.20;;;15.00;93.60;;;15.78;57.83;97470.00;4966605;28;114168;-80
2022/11/16 10:48:21;;;;;;;3.77;1.30;;;15.20;93.40;;;15.86;57.80;97459.75;4971600;28;97285;-78
2022/11/16 10:50:50;;;;;;;2.20;0.93;;;15.20;93.30;;;15.98;57.16;97467.03;4953614;28;122965;-77
2022/11/16 10:53:28;;;;;;;2.03;1.00;;;15.30;93.30;;;16.10;56.95;97456.41;4968144;28;114045;-77
2022/11/16 10:56:12;;;;;;;1.33;1.00;;;14.50;92.70;;;16.25;56.53;97454.56;4980629;28;113238;-78
2022/11/16 10:58:59;;;;;;;2.03;1.20;;;15.60;93.00;;;16.42;56.36;97463.50;4964531;28;124663;-78
2022/11/16 11:01:43;;;;;;;4.20;1.07;;;15.70;92.90;;;16.54;55.90;97440.91;4967861;28;123799;-77
2022/11/16 11:04:30;;;;;;;2.70;1.20;;;15.80;92.70;;;16.69;55.76;97444.63;4969880;28;115231;-79
2022/11/16 11:07:21;;;;;;;1.43;1.10;;;16.00;92.60;;;16.89;55.70;97437.63;4962635;28;114768;-76
2022/11/16 11:09:52;;;;;;;1.93;1.10;;;16.20;92.70;;;17.10;54.94;97444.53;4963670;28;124008;-77
2022/11/16 11:12:37;;;;;;;1.67;1.23;;;16.30;92.40;;;17.24;54.18;97436.25;4968947;28;123665;-76
2022/11/16 11:15:25;;;;;;;2.87;1.27;;;16.40;92.10;;;17.41;54.19;97434.75;4971054;28;114374;-81
2022/11/16 11:18:15;;;;;;;1.13;1.03;;;16.60;92.10;;;17.54;53.55;97433.19;4966649;28;113977;-77
2022/11/16 11:21:09;;;;;;;2.23;1.63;;;16.80;91.70;;;17.55;52.84;97422.84;4968630;28;124360;-76
2022/11/16 11:23:50;;;;;;;2.00;1.37;;;16.90;91.10;;;17.53;52.91;97431.59;4958293;28;122755;-76
2022/11/16 11:26:50;;;;;;;2.67;1.70;;;17.00;91.20;;;17.49;52.81;97436.38;4969076;28;113383;-80
2022/11/16 11:29:36;;;;;;;3.40;1.40;;;16.90;90.90;;;17.48;52.58;97426.41;4989322;28;115821;-77